Impacts TAF Board INFO
FOR SITUATIONAL AWARENESS. NOT TO BE USED FOR FLIGHT PLANNING PURPOSES.
IDs:

KSEA - Seattle-Tacoma Intl, WA, US

Issued at 0901 UTC 23 May 2018
Updated at 1112 UTC 23 May 2018
Potential Impact None Slight Moderate High
Time<<24/00Z 24/01Z 24/02Z 24/03Z 24/04Z 24/05Z 24/06Z 24/07Z 24/08Z 24/09Z 24/10Z 24/11Z 24/12Z>>
Type PRVL PRVL PRVL PRVL PRVL PRVL PRVL PRVL PRVL PRVL PRVL PRVL
VIS >6 >6 >6 >6 >6 >6 >6 >6 >6 >6 >6 >6
CIG -- -- -- -- -- -- 250 250 250 15 15 15
Cover SCT SCT SCT SCT SCT SCT BKN BKN BKN OVC OVC OVC
FltCat VFR VFR VFR VFR VFR VFR VFR VFR VFR MVFR MVFR MVFR
WX -- -- -- -- -- -- -- -- -- -- -- --
WDir 250 250 250 250 250 250 220 220 220 200 200 200
WSpd 8 8 8 8 8 8 7 7 7 6 6 6
WGst -- -- -- -- -- -- -- -- -- -- -- --

Raw TAF
KSEA 230901Z 2309/2412 02009KT P6SM SCT100
  FM231300 24005KT P6SM SCT100
  FM231900 25008KT P6SM SCT120
  FM240600 22007KT P6SM SCT100 BKN250
  FM240900 20006KT P6SM OVC015


METAR Board
Radar Display
Forecast Discussion

FOR SITUATIONAL AWARENESS. NOT TO BE USED FOR FLIGHT PLANNING PURPOSES.